Terminal Aerodrome Forecast
Issued by NWS

Home | Current Version | Previous Version | Text Only | Print | Product List | Glossary On
Versions: 1 2 3 4 5 6 7 8 9 10 11 12 13 14 15 16 17 18 19 20 21 22 23 24 25 26 27 28 29 30
322
FTUS44 KOHX 291120
TAFCKV
TAF
KCKV 291120Z 2912/3012 36003KT P6SM BKN250
     FM292100 06005KT P6SM -RA OVC060
     FM300000 11008KT P6SM OVC050
     FM300800 14005KT 5SM -RA OVC025=

USA.gov is the U.S. government's official web portal to all federal, state and local government web resources and services.